Time;durP1;ratioP1;P1;durP2;ratioP2;P2;SDS_P1;SDS_P2;PMS_P1;PMS_P2;Temp;Humidity;BMP_temperature;BMP_pressure;BME280_temperature;BME280_humidity;BME280_pressure;Samples;Min_cycle;Max_cycle;Signal;HPM_P1;HPM_P2
2024/03/16 00:00:07;;;;;;;1.10;0.43;;;;;;;;;;10184477;28;20051;-75
2024/03/16 00:05:11;;;;;;;0.63;0.32;;;;;;;;;;10185656;28;20043;-76
2024/03/16 00:10:14;;;;;;;2.92;0.40;;;;;;;;;;10196102;28;20059;-76
2024/03/16 00:15:17;;;;;;;1.60;0.83;;;;;;;;;;10194899;28;20104;-75
2024/03/16 00:20:19;;;;;;;1.85;0.55;;;;;;;;;;10196771;28;20162;-76
2024/03/16 00:25:26;;;;;;;0.35;0.30;;;;;;;;;;10196986;28;20039;-77
2024/03/16 00:30:30;;;;;;;1.55;0.95;;;;;;;;;;10203434;28;20383;-78
2024/03/16 00:35:33;;;;;;;1.15;0.70;;;;;;;;;;10193663;28;20500;-78
2024/03/16 00:40:36;;;;;;;3.20;0.90;;;;;;;;;;10197862;28;20047;-77
2024/03/16 00:45:39;;;;;;;1.38;0.43;;;;;;;;;;10194843;28;20040;-78
2024/03/16 00:50:45;;;;;;;0.97;0.57;;;;;;;;;;10196454;28;20516;-78
2024/03/16 00:55:50;;;;;;;1.33;0.90;;;;;;;;;;10194627;28;20066;-77
2024/03/16 01:00:52;;;;;;;0.80;0.80;;;;;;;;;;10197139;28;20122;-74
2024/03/16 01:05:59;;;;;;;1.25;0.82;;;;;;;;;;10199754;28;20079;-75
2024/03/16 01:11:02;;;;;;;1.05;0.65;;;;;;;;;;10198001;28;20043;-74
2024/03/16 01:16:05;;;;;;;0.68;0.68;;;;;;;;;;10196360;28;20130;-75
2024/03/16 01:21:09;;;;;;;1.33;0.90;;;;;;;;;;10199541;28;20046;-76
2024/03/16 01:26:13;;;;;;;1.17;0.88;;;;;;;;;;10184444;28;20055;-74
2024/03/16 01:31:17;;;;;;;0.67;0.60;;;;;;;;;;10194272;28;22167;-75
2024/03/16 01:36:21;;;;;;;1.17;0.95;;;;;;;;;;10193706;28;20464;-75
2024/03/16 01:41:27;;;;;;;2.63;0.85;;;;;;;;;;10196704;28;20122;-76
2024/03/16 01:46:31;;;;;;;0.88;0.57;;;;;;;;;;10213472;28;20608;-76
2024/03/16 01:51:34;;;;;;;0.82;0.70;;;;;;;;;;10204505;28;20048;-76
2024/03/16 01:56:37;;;;;;;1.25;0.68;;;;;;;;;;10208485;28;20055;-76
2024/03/16 02:01:40;;;;;;;1.10;0.70;;;;;;;;;;10186422;28;20082;-76
2024/03/16 02:06:48;;;;;;;2.28;0.73;;;;;;;;;;10200840;28;20051;-76
2024/03/16 02:11:51;;;;;;;1.55;0.63;;;;;;;;;;10209637;28;20047;-76
2024/03/16 02:16:55;;;;;;;1.10;0.43;;;;;;;;;;10202931;28;20062;-76
2024/03/16 02:21:57;;;;;;;0.93;0.68;;;;;;;;;;10200480;28;20444;-76
2024/03/16 02:27:03;;;;;;;0.80;0.38;;;;;;;;;;10199953;28;20111;-75
2024/03/16 02:32:06;;;;;;;0.43;0.37;;;;;;;;;;10187811;28;20052;-77
2024/03/16 02:37:09;;;;;;;0.20;0.20;;;;;;;;;;10199322;28;20143;-76
2024/03/16 02:42:13;;;;;;;0.32;0.32;;;;;;;;;;10200240;28;20536;-77
2024/03/16 02:47:16;;;;;;;0.73;0.30;;;;;;;;;;10201697;28;20074;-76
2024/03/16 02:52:19;;;;;;;0.10;0.10;;;;;;;;;;10200424;28;20528;-78
2024/03/16 02:57:24;;;;;;;0.50;0.30;;;;;;;;;;10199950;28;20346;-77
2024/03/16 03:02:28;;;;;;;0.15;0.15;;;;;;;;;;10202250;28;20074;-77
2024/03/16 03:07:31;;;;;;;0.35;0.20;;;;;;;;;;10200696;28;20055;-76
2024/03/16 03:12:34;;;;;;;0.20;0.20;;;;;;;;;;10199357;28;20052;-78
2024/03/16 03:17:38;;;;;;;0.27;0.07;;;;;;;;;;10201605;28;20438;-77
2024/03/16 03:22:43;;;;;;;1.02;0.17;;;;;;;;;;10202117;28;20381;-77
2024/03/16 03:27:45;;;;;;;0.40;0.20;;;;;;;;;;10184309;29;20051;-78
2024/03/16 03:32:56;;;;;;;0.00;0.00;;;;;;;;;;10201187;28;20105;-78
2024/03/16 03:37:59;;;;;;;0.80;0.10;;;;;;;;;;10201593;28;20047;-76
2024/03/16 03:43:05;;;;;;;0.00;0.00;;;;;;;;;;10202127;28;20262;-78
2024/03/16 03:48:24;;;;;;;0.10;0.00;;;;;;;;;;10184484;28;20036;-76
2024/03/16 03:53:29;;;;;;;0.00;0.00;;;;;;;;;;10225338;28;20086;-78
2024/03/16 03:58:32;;;;;;;0.43;0.20;;;;;;;;;;10212311;28;20053;-77
2024/03/16 04:03:35;;;;;;;0.00;0.00;;;;;;;;;;10181551;28;20047;-76
2024/03/16 04:08:38;;;;;;;0.03;0.00;;;;;;;;;;10198517;28;20134;-77
2024/03/16 04:13:41;;;;;;;0.10;0.00;;;;;;;;;;10196448;28;20114;-77
2024/03/16 04:18:44;;;;;;;0.00;0.00;;;;;;;;;;10199175;28;20075;-75
2024/03/16 04:23:48;;;;;;;0.00;0.00;;;;;;;;;;10195829;28;20178;-74
2024/03/16 04:28:51;;;;;;;0.10;0.00;;;;;;;;;;10185470;28;20043;-76
2024/03/16 04:33:59;;;;;;;0.60;0.08;;;;;;;;;;10194144;29;20056;-76
2024/03/16 04:39:05;;;;;;;0.10;0.10;;;;;;;;;;10186071;28;20039;-77
2024/03/16 04:44:08;;;;;;;0.00;0.00;;;;;;;;;;10182948;28;20564;-76
2024/03/16 04:49:11;;;;;;;0.10;0.00;;;;;;;;;;10199146;28;21279;-76
2024/03/16 04:54:14;;;;;;;0.17;0.05;;;;;;;;;;10195417;28;20810;-75
2024/03/16 04:59:17;;;;;;;0.03;0.03;;;;;;;;;;10179573;28;20036;-78
2024/03/16 05:04:20;;;;;;;0.00;0.00;;;;;;;;;;10196868;28;20517;-78
2024/03/16 05:09:24;;;;;;;0.00;0.00;;;;;;;;;;10197675;28;20091;-75
2024/03/16 05:14:27;;;;;;;0.37;0.23;;;;;;;;;;10182167;28;20043;-76
2024/03/16 05:19:31;;;;;;;0.00;0.00;;;;;;;;;;10196718;28;20126;-77
2024/03/16 05:24:34;;;;;;;0.10;0.10;;;;;;;;;;10205598;28;20512;-78
2024/03/16 05:29:38;;;;;;;0.10;0.00;;;;;;;;;;10210778;29;20050;-77
2024/03/16 05:34:41;;;;;;;0.10;0.00;;;;;;;;;;10208916;28;20122;-75
2024/03/16 05:39:44;;;;;;;0.00;0.00;;;;;;;;;;10208708;28;20087;-76
2024/03/16 05:44:47;;;;;;;0.10;0.10;;;;;;;;;;10221292;28;20057;-75
2024/03/16 05:49:50;;;;;;;0.30;0.10;;;;;;;;;;10209699;28;20505;-76
2024/03/16 05:54:56;;;;;;;0.00;0.00;;;;;;;;;;10211467;28;20554;-77
2024/03/16 05:59:59;;;;;;;0.00;0.00;;;;;;;;;;10216161;28;20571;-77
2024/03/16 06:05:02;;;;;;;0.10;0.10;;;;;;;;;;10213341;28;20039;-76
2024/03/16 06:10:05;;;;;;;0.10;0.10;;;;;;;;;;10209247;28;20045;-77
2024/03/16 06:15:09;;;;;;;0.00;0.00;;;;;;;;;;10206164;28;20315;-75
2024/03/16 06:20:15;;;;;;;0.05;0.05;;;;;;;;;;10207226;28;20408;-75
2024/03/16 06:25:20;;;;;;;0.50;0.20;;;;;;;;;;10208631;28;20402;-76
2024/03/16 06:30:27;;;;;;;0.17;0.13;;;;;;;;;;10208194;28;20148;-77
2024/03/16 06:35:30;;;;;;;0.20;0.10;;;;;;;;;;10204740;28;20130;-77
2024/03/16 06:40:35;;;;;;;0.10;0.10;;;;;;;;;;10198599;28;21387;-78
2024/03/16 06:45:38;;;;;;;0.73;0.20;;;;;;;;;;10203325;28;20051;-76
2024/03/16 06:50:42;;;;;;;0.05;0.00;;;;;;;;;;10184956;28;20411;-76
2024/03/16 06:55:48;;;;;;;0.28;0.20;;;;;;;;;;10200602;28;20212;-76
2024/03/16 07:00:51;;;;;;;0.30;0.30;;;;;;;;;;10206586;28;20174;-76
2024/03/16 07:05:56;;;;;;;0.80;0.40;;;;;;;;;;10181126;28;20586;-75
2024/03/16 07:11:00;;;;;;;0.40;0.40;;;;;;;;;;10197848;28;20545;-76
2024/03/16 07:16:03;;;;;;;2.28;0.50;;;;;;;;;;10198484;28;20051;-77
2024/03/16 07:21:06;;;;;;;0.32;0.30;;;;;;;;;;10198190;28;20051;-75
2024/03/16 07:26:09;;;;;;;0.00;0.00;;;;;;;;;;10200399;28;20039;-76
2024/03/16 07:31:12;;;;;;;0.60;0.60;;;;;;;;;;10201076;28;20047;-79
2024/03/16 07:36:17;;;;;;;0.20;0.20;;;;;;;;;;10200574;28;20504;-78
2024/03/16 07:41:20;;;;;;;0.77;0.50;;;;;;;;;;10200727;28;20058;-78
2024/03/16 07:46:24;;;;;;;0.20;0.20;;;;;;;;;;10184387;28;20577;-78
2024/03/16 07:51:28;;;;;;;0.65;0.30;;;;;;;;;;10201881;28;20424;-78
2024/03/16 07:56:33;;;;;;;0.20;0.20;;;;;;;;;;10200259;28;20059;-78
2024/03/16 08:01:37;;;;;;;0.17;0.17;;;;;;;;;;10200425;28;20035;-79
2024/03/16 08:06:41;;;;;;;0.47;0.47;;;;;;;;;;10212462;28;20066;-79
2024/03/16 08:11:45;;;;;;;0.32;0.32;;;;;;;;;;10213384;28;20452;-80
2024/03/16 08:16:48;;;;;;;0.28;0.20;;;;;;;;;;10193755;28;20039;-80
2024/03/16 08:21:51;;;;;;;;;;;;;;;;;;10196607;28;20071;-80
2024/03/16 08:26:54;;;;;;;0.30;0.30;;;;;;;;;;10213348;28;19938;-75
2024/03/16 08:31:58;;;;;;;1.07;0.40;;;;;;;;;;10194322;28;20039;-77
2024/03/16 08:37:01;;;;;;;0.65;0.47;;;;;;;;;;10180082;28;20516;-75
2024/03/16 08:42:04;;;;;;;0.38;0.20;;;;;;;;;;10198408;28;20048;-84
2024/03/16 08:47:08;;;;;;;2.00;0.28;;;;;;;;;;10194637;28;20047;-81
2024/03/16 08:52:11;;;;;;;0.65;0.57;;;;;;;;;;10181979;28;20047;-82
2024/03/16 08:57:14;;;;;;;0.20;0.20;;;;;;;;;;10198595;28;20405;-82
2024/03/16 09:02:19;;;;;;;0.38;0.25;;;;;;;;;;10194871;28;20576;-83
2024/03/16 09:07:23;;;;;;;1.80;0.60;;;;;;;;;;10186495;28;20054;-81
2024/03/16 09:12:26;;;;;;;1.63;0.40;;;;;;;;;;10195154;28;20071;-82
2024/03/16 09:17:29;;;;;;;0.37;0.37;;;;;;;;;;10202710;28;20047;-82
2024/03/16 09:22:32;;;;;;;0.63;0.32;;;;;;;;;;10195689;28;20050;-82
2024/03/16 09:27:35;;;;;;;1.48;0.50;;;;;;;;;;10193459;28;20055;-82
2024/03/16 09:32:44;;;;;;;0.28;0.28;;;;;;;;;;10200561;28;20083;-82
2024/03/16 09:37:48;;;;;;;2.22;0.52;;;;;;;;;;10202221;28;20548;-82
2024/03/16 09:42:52;;;;;;;0.85;0.38;;;;;;;;;;10199895;28;20035;-81
2024/03/16 09:47:53;;;;;;;1.60;0.45;;;;;;;;;;10181198;28;20058;-82
2024/03/16 09:52:55;;;;;;;3.42;0.60;;;;;;;;;;10187246;28;20048;-83
2024/03/16 09:57:57;;;;;;;1.48;0.60;;;;;;;;;;10189831;28;20062;-82
2024/03/16 10:03:00;;;;;;;1.40;0.60;;;;;;;;;;10184679;28;20067;-81
2024/03/16 10:08:02;;;;;;;5.07;0.82;;;;;;;;;;10187958;28;20051;-82
2024/03/16 10:13:06;;;;;;;3.60;0.68;;;;;;;;;;10207155;28;20032;-79
2024/03/16 10:18:09;;;;;;;1.85;0.63;;;;;;;;;;10192954;28;20055;-80
2024/03/16 10:23:15;;;;;;;2.83;0.32;;;;;;;;;;10188250;28;20150;-80
2024/03/16 10:28:31;;;;;;;0.57;0.45;;;;;;;;;;10173558;28;20567;-80
2024/03/16 10:33:36;;;;;;;0.60;0.25;;;;;;;;;;10186335;28;20058;-82
2024/03/16 10:38:41;;;;;;;1.17;0.45;;;;;;;;;;10184312;28;20548;-81
2024/03/16 10:43:43;;;;;;;0.73;0.38;;;;;;;;;;10189017;28;20072;-81
2024/03/16 10:48:45;;;;;;;1.00;0.65;;;;;;;;;;10202165;28;20524;-80
2024/03/16 10:53:49;;;;;;;1.88;0.65;;;;;;;;;;10183463;28;20043;-81
2024/03/16 10:58:52;;;;;;;2.88;0.70;;;;;;;;;;10185910;28;20055;-83
2024/03/16 11:03:56;;;;;;;0.70;0.50;;;;;;;;;;10189893;28;20452;-82
2024/03/16 11:09:00;;;;;;;1.60;0.50;;;;;;;;;;10168976;28;20078;-82
2024/03/16 11:14:05;;;;;;;0.50;0.50;;;;;;;;;;10171761;28;20113;-83
2024/03/16 11:19:08;;;;;;;2.03;0.75;;;;;;;;;;10200063;28;20358;-84
2024/03/16 11:24:13;;;;;;;1.13;0.77;;;;;;;;;;10200813;28;20054;-84
2024/03/16 11:29:15;;;;;;;1.58;0.30;;;;;;;;;;10182514;28;20952;-83
2024/03/16 11:34:19;;;;;;;0.50;0.32;;;;;;;;;;10189394;28;20493;-82
2024/03/16 11:39:25;;;;;;;1.10;0.20;;;;;;;;;;10188187;28;20049;-84
2024/03/16 11:44:28;;;;;;;0.30;0.30;;;;;;;;;;10185740;28;20488;-82
2024/03/16 11:49:30;;;;;;;0.98;0.40;;;;;;;;;;10171248;29;20794;-82
2024/03/16 11:54:34;;;;;;;1.52;0.30;;;;;;;;;;10190774;28;20662;-83
2024/03/16 11:59:35;;;;;;;0.40;0.30;;;;;;;;;;10193080;29;20516;-88
2024/03/16 12:04:37;;;;;;;0.95;0.40;;;;;;;;;;10188124;28;20047;-82
2024/03/16 12:09:41;;;;;;;1.23;0.38;;;;;;;;;;10190405;28;20368;-85
2024/03/16 12:14:43;;;;;;;0.35;0.30;;;;;;;;;;10201876;28;20051;-84
2024/03/16 12:19:45;;;;;;;0.40;0.35;;;;;;;;;;10207688;28;20040;-84
2024/03/16 12:24:52;;;;;;;0.82;0.50;;;;;;;;;;10188509;28;20455;-84
2024/03/16 12:30:01;;;;;;;1.90;0.40;;;;;;;;;;10182505;28;20039;-85
2024/03/16 12:35:04;;;;;;;0.50;0.40;;;;;;;;;;10188793;28;20054;-83
2024/03/16 12:40:06;;;;;;;;;;;;;;;;;;10171832;28;20078;-83
2024/03/16 12:45:08;;;;;;;0.47;0.30;;;;;;;;;;10196834;28;20503;-84
2024/03/16 12:50:10;;;;;;;2.67;0.40;;;;;;;;;;10155899;28;20452;-84
2024/03/16 12:55:12;;;;;;;0.85;0.60;;;;;;;;;;10169585;28;20981;-83
2024/03/16 13:00:17;;;;;;;2.00;0.30;;;;;;;;;;10173332;28;20153;-84
2024/03/16 13:05:20;;;;;;;0.65;0.40;;;;;;;;;;10170935;28;20140;-84
2024/03/16 13:10:22;;;;;;;0.20;0.00;;;;;;;;;;10184776;28;20043;-82
2024/03/16 13:15:24;;;;;;;0.20;0.10;;;;;;;;;;10185134;28;20480;-83
2024/03/16 13:20:28;;;;;;;0.05;0.00;;;;;;;;;;10200229;28;20043;-83
2024/03/16 13:25:30;;;;;;;0.63;0.30;;;;;;;;;;10189561;28;20051;-86
2024/03/16 13:30:34;;;;;;;1.48;0.65;;;;;;;;;;10187127;28;20122;-83
2024/03/16 13:35:36;;;;;;;0.10;0.10;;;;;;;;;;10189058;28;20051;-83
2024/03/16 13:40:38;;;;;;;0.20;0.10;;;;;;;;;;10181770;28;20050;-83
2024/03/16 13:45:41;;;;;;;0.22;0.10;;;;;;;;;;10187133;28;20531;-83
2024/03/16 13:50:45;;;;;;;0.17;0.17;;;;;;;;;;10200704;28;20047;-85
2024/03/16 13:55:47;;;;;;;0.38;0.30;;;;;;;;;;10192538;28;20488;-85
2024/03/16 14:00:48;;;;;;;0.95;0.20;;;;;;;;;;10189378;28;20646;-84
2024/03/16 14:05:50;;;;;;;0.43;0.30;;;;;;;;;;10176353;28;20044;-83
2024/03/16 14:10:52;;;;;;;0.25;0.20;;;;;;;;;;10201057;28;20059;-83
2024/03/16 14:15:55;;;;;;;0.83;0.23;;;;;;;;;;10196905;28;20048;-82
2024/03/16 14:20:58;;;;;;;1.13;0.50;;;;;;;;;;10213324;28;20530;-84
2024/03/16 14:26:00;;;;;;;0.43;0.15;;;;;;;;;;10218301;28;20130;-84
2024/03/16 14:31:03;;;;;;;0.22;0.20;;;;;;;;;;10211027;28;20548;-84
2024/03/16 14:36:06;;;;;;;2.65;0.47;;;;;;;;;;10199272;28;20051;-84
2024/03/16 14:41:09;;;;;;;0.30;0.30;;;;;;;;;;10193778;28;20597;-84
2024/03/16 14:46:12;;;;;;;0.30;0.30;;;;;;;;;;10178696;28;20073;-84
2024/03/16 14:51:15;;;;;;;0.47;0.40;;;;;;;;;;10201871;28;20043;-83
2024/03/16 14:56:18;;;;;;;0.40;0.40;;;;;;;;;;10194661;28;20147;-83
2024/03/16 15:01:20;;;;;;;0.45;0.28;;;;;;;;;;10240186;28;20043;-83
2024/03/16 15:06:23;;;;;;;1.15;0.40;;;;;;;;;;10225159;28;20445;-84
2024/03/16 15:11:25;;;;;;;0.40;0.30;;;;;;;;;;10223738;28;20122;-82
2024/03/16 15:16:27;;;;;;;1.52;0.45;;;;;;;;;;10191573;28;20183;-83
2024/03/16 15:21:30;;;;;;;1.15;0.25;;;;;;;;;;10207991;28;20035;-83
2024/03/16 15:26:34;;;;;;;1.48;0.95;;;;;;;;;;10230018;28;20082;-83
2024/03/16 15:31:36;;;;;;;1.00;0.40;;;;;;;;;;10212773;28;20489;-84
2024/03/16 15:36:38;;;;;;;1.02;0.50;;;;;;;;;;10193642;28;20095;-83
2024/03/16 15:41:41;;;;;;;0.25;0.25;;;;;;;;;;10186104;28;20043;-77
2024/03/16 15:46:46;;;;;;;0.70;0.50;;;;;;;;;;10185148;28;20054;-76
2024/03/16 15:51:51;;;;;;;2.42;0.63;;;;;;;;;;10185270;28;20130;-76
2024/03/16 15:56:53;;;;;;;1.17;0.50;;;;;;;;;;10201995;28;20088;-76
2024/03/16 16:01:55;;;;;;;0.40;0.40;;;;;;;;;;10187708;28;20488;-75
2024/03/16 16:06:57;;;;;;;0.20;0.20;;;;;;;;;;10187417;28;20059;-76
2024/03/16 16:11:59;;;;;;;0.85;0.50;;;;;;;;;;10186805;28;20476;-77
2024/03/16 16:17:01;;;;;;;0.98;0.22;;;;;;;;;;10169397;28;20102;-73
2024/03/16 16:22:03;;;;;;;3.05;0.80;;;;;;;;;;10190268;28;20115;-75
2024/03/16 16:27:08;;;;;;;0.50;0.50;;;;;;;;;;10194438;28;20039;-77
2024/03/16 16:32:10;;;;;;;0.52;0.50;;;;;;;;;;10190327;28;20043;-77
2024/03/16 16:37:12;;;;;;;3.33;0.43;;;;;;;;;;10188930;28;20501;-76
2024/03/16 16:42:20;;;;;;;1.27;0.60;;;;;;;;;;10188335;28;20392;-75
2024/03/16 16:47:22;;;;;;;0.88;0.43;;;;;;;;;;10172414;28;20311;-77
2024/03/16 16:52:24;;;;;;;1.45;0.10;;;;;;;;;;10189977;28;20044;-75
2024/03/16 16:57:26;;;;;;;0.73;0.68;;;;;;;;;;10173888;28;20039;-76
2024/03/16 17:02:28;;;;;;;1.85;0.90;;;;;;;;;;10193565;28;20046;-76
2024/03/16 17:07:33;;;;;;;1.67;0.73;;;;;;;;;;10188383;28;20473;-75
2024/03/16 17:12:34;;;;;;;1.33;0.55;;;;;;;;;;10187927;28;20046;-76
2024/03/16 17:17:37;;;;;;;1.40;0.70;;;;;;;;;;10191624;28;20067;-76
2024/03/16 17:22:39;;;;;;;1.02;0.77;;;;;;;;;;10188023;28;20932;-77
2024/03/16 17:27:41;;;;;;;1.10;0.55;;;;;;;;;;10181786;28;20587;-76
2024/03/16 17:32:43;;;;;;;1.75;0.70;;;;;;;;;;10194031;28;20392;-75
2024/03/16 17:37:46;;;;;;;3.38;0.85;;;;;;;;;;10183560;28;20512;-76
2024/03/16 17:42:48;;;;;;;0.77;0.47;;;;;;;;;;10179870;28;20407;-77
2024/03/16 17:47:50;;;;;;;1.17;0.50;;;;;;;;;;10182108;28;20426;-76
2024/03/16 17:52:52;;;;;;;1.00;0.45;;;;;;;;;;10186453;28;20107;-76
2024/03/16 17:57:58;;;;;;;2.33;0.60;;;;;;;;;;10187582;28;20182;-76
2024/03/16 18:03:00;;;;;;;1.02;0.52;;;;;;;;;;10182702;28;20489;-77
2024/03/16 18:08:03;;;;;;;2.80;0.77;;;;;;;;;;10179339;28;20127;-77
2024/03/16 18:13:06;;;;;;;1.88;0.82;;;;;;;;;;10179494;28;20043;-76
2024/03/16 18:18:14;;;;;;;1.00;0.55;;;;;;;;;;10182221;28;20039;-76
2024/03/16 18:23:20;;;;;;;2.47;0.80;;;;;;;;;;10169813;28;20055;-77
2024/03/16 18:28:25;;;;;;;1.35;0.70;;;;;;;;;;10179513;28;20079;-76
2024/03/16 18:33:29;;;;;;;2.22;0.80;;;;;;;;;;10204447;28;20071;-77
2024/03/16 18:38:33;;;;;;;4.13;1.08;;;;;;;;;;10206047;28;20046;-76
2024/03/16 18:43:35;;;;;;;0.75;0.65;;;;;;;;;;10189322;28;20050;-78
2024/03/16 18:48:38;;;;;;;3.35;1.23;;;;;;;;;;10202290;28;20035;-78
2024/03/16 18:53:41;;;;;;;1.95;1.13;;;;;;;;;;10200012;28;20413;-75
2024/03/16 18:58:44;;;;;;;2.50;1.30;;;;;;;;;;10215257;28;20047;-76
2024/03/16 19:03:46;;;;;;;2.20;1.23;;;;;;;;;;10201183;28;20043;-78
2024/03/16 19:08:49;;;;;;;3.78;1.20;;;;;;;;;;10190750;28;20103;-78
2024/03/16 19:19:12;;;;;;;1.05;0.88;;;;;;;;;;10199285;28;20420;-77
2024/03/16 19:24:16;;;;;;;1.98;0.88;;;;;;;;;;10203104;28;20047;-76
2024/03/16 19:29:21;;;;;;;2.63;1.30;;;;;;;;;;10201331;28;20409;-76
2024/03/16 19:34:24;;;;;;;2.33;1.20;;;;;;;;;;10200329;28;20043;-77
2024/03/16 19:39:31;;;;;;;1.65;0.95;;;;;;;;;;10202031;29;20125;-78
2024/03/16 19:44:40;;;;;;;1.73;1.05;;;;;;;;;;10203105;28;20047;-77
2024/03/16 19:49:45;;;;;;;4.80;1.42;;;;;;;;;;10201117;28;20047;-76
2024/03/16 19:54:48;;;;;;;2.35;0.90;;;;;;;;;;10201197;28;20031;-79
2024/03/16 19:59:51;;;;;;;1.90;0.90;;;;;;;;;;10184699;28;20484;-76
2024/03/16 20:04:54;;;;;;;1.58;0.90;;;;;;;;;;10199953;28;20073;-76
2024/03/16 20:10:01;;;;;;;1.63;1.00;;;;;;;;;;10192524;28;20055;-74
2024/03/16 20:15:06;;;;;;;1.58;0.75;;;;;;;;;;10204381;28;20040;-76
2024/03/16 20:20:13;;;;;;;1.60;1.00;;;;;;;;;;10182263;28;20043;-76
2024/03/16 20:25:19;;;;;;;1.75;1.10;;;;;;;;;;10197393;28;20043;-77
2024/03/16 20:30:21;;;;;;;0.82;0.50;;;;;;;;;;10197516;28;20054;-77
2024/03/16 20:35:24;;;;;;;1.17;0.95;;;;;;;;;;10197117;28;20048;-77
2024/03/16 20:40:30;;;;;;;2.63;1.10;;;;;;;;;;10199463;28;20047;-77
2024/03/16 20:45:34;;;;;;;1.40;0.90;;;;;;;;;;10200852;28;20062;-76
2024/03/16 20:50:42;;;;;;;1.88;1.00;;;;;;;;;;10200316;28;20047;-76
2024/03/16 20:55:48;;;;;;;1.50;1.02;;;;;;;;;;10196685;28;20043;-76
2024/03/16 21:00:50;;;;;;;;;;;;;;;;;;10199490;28;20138;-76
2024/03/16 21:05:52;;;;;;;2.42;0.98;;;;;;;;;;10193301;28;19930;-76
2024/03/16 21:10:55;;;;;;;2.38;1.38;;;;;;;;;;10197823;28;20058;-76
2024/03/16 21:16:00;;;;;;;0.97;0.90;;;;;;;;;;10200327;28;20042;-75
2024/03/16 21:21:02;;;;;;;1.38;1.10;;;;;;;;;;10195068;28;20069;-76
2024/03/16 21:26:06;;;;;;;1.98;1.48;;;;;;;;;;10183384;28;20039;-76
2024/03/16 21:31:10;;;;;;;1.90;1.20;;;;;;;;;;10179706;28;20043;-76
2024/03/16 21:36:15;;;;;;;1.83;1.10;;;;;;;;;;10196584;28;20060;-75
2024/03/16 21:41:18;;;;;;;1.90;1.17;;;;;;;;;;10191859;28;20051;-76
2024/03/16 21:46:20;;;;;;;4.65;1.27;;;;;;;;;;10197938;28;20416;-76
2024/03/16 21:51:22;;;;;;;1.98;1.42;;;;;;;;;;10194234;28;20401;-76
2024/03/16 21:56:28;;;;;;;3.97;1.58;;;;;;;;;;10181308;28;20043;-76
2024/03/16 22:01:30;;;;;;;3.53;1.55;;;;;;;;;;10180720;28;20039;-76
2024/03/16 22:06:32;;;;;;;2.92;1.73;;;;;;;;;;10198248;28;20094;-74
2024/03/16 22:11:38;;;;;;;2.95;1.63;;;;;;;;;;10199487;28;20617;-75
2024/03/16 22:16:40;;;;;;;4.13;1.80;;;;;;;;;;10171196;29;20062;-76
2024/03/16 22:21:42;;;;;;;2.80;1.60;;;;;;;;;;10188199;28;20035;-76
2024/03/16 22:26:52;;;;;;;3.92;1.90;;;;;;;;;;10199048;28;20051;-74
2024/03/16 22:31:55;;;;;;;2.70;1.52;;;;;;;;;;10201936;28;20047;-75
2024/03/16 22:36:57;;;;;;;2.88;1.58;;;;;;;;;;10197937;28;20138;-75
2024/03/16 22:42:01;;;;;;;4.25;1.63;;;;;;;;;;10200103;28;20036;-75
2024/03/16 22:47:04;;;;;;;5.18;2.80;;;;;;;;;;10203465;28;20139;-77
2024/03/16 22:52:07;;;;;;;2.55;1.63;;;;;;;;;;10175855;28;20045;-78
2024/03/16 22:57:10;;;;;;;4.07;2.00;;;;;;;;;;10198638;28;20044;-70
2024/03/16 23:02:13;;;;;;;6.18;2.20;;;;;;;;;;10185667;28;20043;-76
2024/03/16 23:07:17;;;;;;;2.58;1.52;;;;;;;;;;10201469;28;20052;-77
2024/03/16 23:12:21;;;;;;;5.80;2.00;;;;;;;;;;10200739;28;20054;-78
2024/03/16 23:17:23;;;;;;;;;;;;;;;;;;10204347;28;20050;-77
2024/03/16 23:22:27;;;;;;;3.47;2.10;;;;;;;;;;10205489;28;19973;-78
2024/03/16 23:27:32;;;;;;;6.03;2.20;;;;;;;;;;10190265;29;20081;-77
2024/03/16 23:32:35;;;;;;;5.30;2.17;;;;;;;;;;10200685;28;20656;-77
2024/03/16 23:37:38;;;;;;;3.77;1.90;;;;;;;;;;10199838;28;20047;-75
2024/03/16 23:42:41;;;;;;;5.97;2.20;;;;;;;;;;10188578;28;20975;-75
2024/03/16 23:47:44;;;;;;;5.90;2.05;;;;;;;;;;10205568;28;20047;-75
2024/03/16 23:52:45;;;;;;;4.43;1.90;;;;;;;;;;10200547;28;20481;-76
2024/03/16 23:57:49;;;;;;;3.78;1.80;;;;;;;;;;10203169;28;20047;-75
